Time;durP1;ratioP1;P1;durP2;ratioP2;P2;SDS_P1;SDS_P2;PMS_P1;PMS_P2;Temp;Humidity;BMP_temperature;BMP_pressure;BME280_temperature;BME280_humidity;BME280_pressure;Samples;Min_cycle;Max_cycle;Signal;HPM_P1;HPM_P2
2021/07/02 00:00:32;;;;;;;29.55;11.40;;;15.20;99.90;;;;;;5009197;28;25060;-64
2021/07/02 00:02:59;;;;;;;23.33;12.00;;;15.20;99.90;;;;;;5007761;28;25060;-64
2021/07/02 00:05:25;;;;;;;23.15;13.00;;;15.30;99.90;;;;;;5006790;28;25070;-65
2021/07/02 00:07:50;;;;;;;22.42;12.43;;;15.30;99.90;;;;;;5008621;28;24805;-63
2021/07/02 00:10:16;;;;;;;22.55;12.43;;;15.40;99.90;;;;;;5009809;28;25128;-66
2021/07/02 00:12:42;;;;;;;25.73;12.00;;;15.40;99.90;;;;;;4995982;28;25080;-63
2021/07/02 00:15:09;;;;;;;27.52;13.48;;;15.30;99.90;;;;;;5008715;28;25137;-67
2021/07/02 00:17:35;;;;;;;22.60;11.38;;;15.30;99.90;;;;;;5017747;28;25164;-62
2021/07/02 00:20:00;;;;;;;16.88;11.65;;;15.20;99.90;;;;;;5008659;28;25089;-64
2021/07/02 00:22:26;;;;;;;21.05;12.63;;;15.20;99.90;;;;;;5006018;28;25125;-63
2021/07/02 00:24:52;;;;;;;20.85;11.38;;;15.30;99.90;;;;;;5003301;28;25082;-64
2021/07/02 00:27:18;;;;;;;20.23;11.20;;;15.30;99.90;;;;;;4997659;28;25163;-65
2021/07/02 00:29:44;;;;;;;23.98;11.60;;;15.30;99.90;;;;;;5005012;28;25105;-62
2021/07/02 00:32:11;;;;;;;25.73;11.65;;;15.30;99.90;;;;;;5008288;28;25082;-62
2021/07/02 00:34:37;;;;;;;19.23;11.98;;;15.30;99.90;;;;;;4995008;28;25080;-65
2021/07/02 00:37:03;;;;;;;23.50;12.30;;;15.40;99.90;;;;;;4997840;28;25115;-63
2021/07/02 00:39:29;;;;;;;23.88;11.20;;;15.50;99.90;;;;;;5006632;28;25117;-62
2021/07/02 00:41:55;;;;;;;26.95;12.02;;;15.50;99.90;;;;;;5007633;28;25084;-64
2021/07/02 00:44:41;;;;;;;22.23;11.85;;;15.50;99.90;;;;;;5008569;28;25125;-64
2021/07/02 00:47:07;;;;;;;21.40;11.75;;;15.40;99.90;;;;;;5006671;28;25078;-64
2021/07/02 00:49:37;;;;;;;24.63;12.68;;;15.50;99.90;;;;;;4989918;28;25108;-64
2021/07/02 00:52:07;;;;;;;23.05;11.73;;;15.50;99.90;;;;;;4996679;28;25073;-63
2021/07/02 00:54:35;;;;;;;20.42;11.27;;;15.50;99.90;;;;;;5008367;28;25151;-66
2021/07/02 00:57:02;;;;;;;23.15;12.23;;;15.60;99.90;;;;;;5001737;28;25100;-66
2021/07/02 00:59:28;;;;;;;22.00;11.32;;;15.60;99.90;;;;;;4993465;28;25056;-63
2021/07/02 01:01:53;;;;;;;21.73;11.02;;;15.70;99.90;;;;;;5005864;28;25091;-64
2021/07/02 01:04:19;;;;;;;22.50;10.57;;;15.70;99.90;;;;;;5002566;28;25054;-65
2021/07/02 01:06:46;;;;;;;21.92;10.13;;;15.50;99.90;;;;;;4993727;28;25065;-65
2021/07/02 01:09:12;;;;;;;21.08;10.48;;;15.60;99.90;;;;;;4996555;28;25165;-62
2021/07/02 01:11:38;;;;;;;18.58;9.32;;;15.50;99.90;;;;;;5002637;28;25072;-64
2021/07/02 01:14:04;;;;;;;14.27;9.10;;;15.50;99.90;;;;;;5008125;28;25074;-65
2021/07/02 01:16:30;;;;;;;19.30;10.05;;;15.50;99.90;;;;;;5007961;28;25059;-63
2021/07/02 01:18:57;;;;;;;17.63;9.40;;;15.40;99.90;;;;;;5003245;28;25056;-65
2021/07/02 01:21:22;;;;;;;16.73;9.45;;;15.40;99.90;;;;;;4999277;28;25105;-63
2021/07/02 01:23:48;;;;;;;17.90;9.70;;;15.50;99.90;;;;;;5006287;28;25140;-64
2021/07/02 01:26:15;;;;;;;14.45;7.90;;;15.60;99.90;;;;;;5004945;28;25064;-65
2021/07/02 01:28:42;;;;;;;21.45;10.30;;;15.70;99.90;;;;;;5001311;28;25104;-64
2021/07/02 01:31:08;;;;;;;15.98;8.02;;;15.80;99.90;;;;;;5007737;28;25082;-66
2021/07/02 01:33:34;;;;;;;16.60;8.68;;;15.90;99.90;;;;;;5007695;28;25109;-64
2021/07/02 01:36:06;;;;;;;15.43;8.18;;;15.90;99.90;;;;;;5003473;28;25088;-63
2021/07/02 01:38:32;;;;;;;;;;;15.90;99.90;;;;;;5000131;28;25055;-65
2021/07/02 01:41:00;;;;;;;21.67;8.95;;;15.90;99.90;;;;;;5006929;28;25062;-65
2021/07/02 01:43:27;;;;;;;15.90;8.50;;;15.80;99.90;;;;;;5003357;28;25106;-64
2021/07/02 01:45:53;;;;;;;18.75;9.18;;;15.80;99.90;;;;;;4994973;28;25095;-64
2021/07/02 01:48:19;;;;;;;17.08;9.45;;;15.70;99.90;;;;;;5005291;28;25089;-64
2021/07/02 01:50:45;;;;;;;25.15;9.13;;;15.70;99.90;;;;;;5008581;28;25139;-64
2021/07/02 01:53:10;;;;;;;18.25;8.93;;;15.60;99.90;;;;;;5008118;28;25064;-62
2021/07/02 01:55:36;;;;;;;19.38;8.43;;;15.60;99.90;;;;;;5008848;28;25075;-64
2021/07/02 01:58:02;;;;;;;19.63;9.50;;;15.60;99.90;;;;;;5006649;28;25118;-63
2021/07/02 02:00:28;;;;;;;15.30;8.82;;;15.60;99.90;;;;;;5006548;28;25094;-64
2021/07/02 02:02:54;;;;;;;17.02;9.60;;;15.60;99.90;;;;;;5005573;28;25096;-64
2021/07/02 02:05:19;;;;;;;19.00;9.57;;;15.70;99.90;;;;;;5007923;28;25145;-65
2021/07/02 02:07:48;;;;;;;16.42;9.50;;;15.70;99.90;;;;;;5006398;28;25062;-64
2021/07/02 02:10:14;;;;;;;17.02;9.15;;;15.70;99.90;;;;;;5008430;28;25130;-65
2021/07/02 02:12:39;;;;;;;14.98;8.90;;;15.60;99.90;;;;;;5001520;28;25101;-63
2021/07/02 02:15:07;;;;;;;17.60;9.30;;;15.60;99.90;;;;;;5009336;28;25140;-63
2021/07/02 02:17:33;;;;;;;16.30;9.75;;;15.60;99.90;;;;;;5001155;28;25152;-65
2021/07/02 02:19:59;;;;;;;17.50;9.88;;;15.50;99.90;;;;;;5010932;28;25068;-65
2021/07/02 02:22:25;;;;;;;19.92;10.20;;;15.50;99.90;;;;;;5010717;28;25121;-63
2021/07/02 02:24:50;;;;;;;16.95;9.98;;;15.60;99.90;;;;;;5007911;28;25090;-63
2021/07/02 02:27:16;;;;;;;17.38;9.80;;;15.60;99.90;;;;;;5006538;28;25103;-63
2021/07/02 02:29:42;;;;;;;16.83;9.25;;;15.60;99.90;;;;;;5001030;28;25053;-64
2021/07/02 02:32:07;;;;;;;14.68;10.00;;;15.50;99.90;;;;;;5008357;28;25064;-63
2021/07/02 02:34:34;;;;;;;21.85;9.70;;;15.40;99.90;;;;;;5009278;28;25079;-64
2021/07/02 02:36:59;;;;;;;24.05;10.88;;;15.50;99.90;;;;;;5009777;28;25058;-63
2021/07/02 02:39:25;;;;;;;17.83;10.02;;;15.50;99.90;;;;;;5009610;28;25129;-63
2021/07/02 02:41:51;;;;;;;19.35;9.60;;;15.40;99.90;;;;;;5010102;28;25075;-64
2021/07/02 02:44:16;;;;;;;21.48;10.82;;;15.50;99.90;;;;;;5008136;28;25164;-63
2021/07/02 02:46:42;;;;;;;21.52;9.77;;;15.60;99.90;;;;;;5009774;28;25062;-63
2021/07/02 02:49:07;;;;;;;13.90;8.35;;;15.60;99.90;;;;;;5008480;28;25077;-64
2021/07/02 02:51:33;;;;;;;17.17;9.30;;;15.50;99.90;;;;;;4995477;28;25097;-62
2021/07/02 02:53:58;;;;;;;18.00;9.18;;;15.50;99.90;;;;;;5010049;28;25088;-63
2021/07/02 02:56:24;;;;;;;21.77;9.43;;;15.60;99.90;;;;;;5009846;28;25066;-62
2021/07/02 02:58:50;;;;;;;19.30;8.60;;;15.50;99.90;;;;;;5009574;28;25129;-63
2021/07/02 03:01:15;;;;;;;19.95;9.23;;;15.40;99.90;;;;;;4998324;28;25082;-63
2021/07/02 03:03:41;;;;;;;15.82;8.45;;;15.50;99.90;;;;;;5009053;28;25062;-62
2021/07/02 03:06:07;;;;;;;17.83;8.88;;;15.50;99.90;;;;;;4996168;28;25074;-64
2021/07/02 03:08:32;;;;;;;19.20;8.75;;;15.50;99.90;;;;;;5004101;28;25111;-63
2021/07/02 03:10:58;;;;;;;20.60;8.75;;;15.50;99.90;;;;;;5009686;28;25081;-64
2021/07/02 03:13:23;;;;;;;16.13;9.38;;;15.50;99.90;;;;;;5008098;28;25123;-63
2021/07/02 03:15:49;;;;;;;21.33;9.10;;;15.40;99.90;;;;;;5010215;28;25066;-63
2021/07/02 03:18:14;;;;;;;11.57;8.18;;;15.40;99.90;;;;;;5011575;28;25083;-64
2021/07/02 03:20:40;;;;;;;17.60;8.55;;;15.40;99.90;;;;;;5016797;28;25064;-63
2021/07/02 03:23:05;;;;;;;14.98;9.35;;;15.30;99.90;;;;;;5009365;28;25121;-63
2021/07/02 03:25:31;;;;;;;13.30;8.20;;;15.30;99.90;;;;;;4997097;28;25062;-62
2021/07/02 03:27:56;;;;;;;16.75;8.90;;;15.40;99.90;;;;;;5007055;28;25066;-64
2021/07/02 03:30:22;;;;;;;21.85;8.93;;;15.30;99.90;;;;;;5025060;22;25109;-65
2021/07/02 03:32:48;;;;;;;15.18;8.48;;;15.30;99.90;;;;;;5009419;28;25462;-65
2021/07/02 03:35:13;;;;;;;23.45;10.88;;;15.30;99.90;;;;;;5006372;28;25079;-63
2021/07/02 03:37:39;;;;;;;19.77;10.15;;;15.20;99.90;;;;;;5008424;28;25156;-64
2021/07/02 03:40:10;;;;;;;18.52;10.90;;;15.20;99.90;;;;;;5007220;28;25107;-64
2021/07/02 03:42:35;;;;;;;29.38;11.45;;;15.20;99.90;;;;;;4997693;28;25133;-64
2021/07/02 03:45:01;;;;;;;19.23;10.93;;;15.20;99.90;;;;;;5009078;28;25054;-64
2021/07/02 03:47:27;;;;;;;18.52;11.40;;;15.20;99.90;;;;;;5008004;28;25150;-65
2021/07/02 03:49:52;;;;;;;16.50;10.63;;;15.30;99.90;;;;;;5008920;28;25069;-64
2021/07/02 03:52:18;;;;;;;25.85;11.30;;;15.20;99.90;;;;;;5008580;28;25075;-64
2021/07/02 03:54:43;;;;;;;20.30;11.38;;;15.20;99.90;;;;;;5008396;28;25105;-64
2021/07/02 03:57:12;;;;;;;24.75;12.02;;;15.10;99.90;;;;;;5009894;28;25062;-64
2021/07/02 03:59:49;;;;;;;25.70;12.32;;;15.10;99.90;;;;;;5008149;28;25070;-64
2021/07/02 04:02:15;;;;;;;25.80;13.18;;;15.10;99.90;;;;;;5008977;28;25082;-65
2021/07/02 04:04:42;;;;;;;27.40;13.10;;;15.00;99.90;;;;;;5004363;28;25065;-63
2021/07/02 04:07:10;;;;;;;26.52;13.18;;;15.00;99.90;;;;;;4996394;28;25059;-64
2021/07/02 04:09:37;;;;;;;34.38;14.93;;;15.00;99.90;;;;;;5008867;28;25064;-64
2021/07/02 04:12:03;;;;;;;32.60;15.02;;;15.00;99.90;;;;;;5007064;28;25078;-64
2021/07/02 04:14:30;;;;;;;32.05;14.50;;;15.10;99.90;;;;;;5008516;28;25076;-64
2021/07/02 04:16:56;;;;;;;33.20;15.95;;;15.10;99.90;;;;;;5007169;28;25066;-64
2021/07/02 04:19:22;;;;;;;27.98;14.73;;;15.20;99.90;;;;;;5008134;28;25088;-63
2021/07/02 04:21:49;;;;;;;28.80;15.25;;;15.20;99.90;;;;;;5002599;28;25076;-64
2021/07/02 04:24:16;;;;;;;25.05;13.68;;;15.30;99.90;;;;;;4999543;28;25094;-64
2021/07/02 04:26:42;;;;;;;24.33;14.65;;;15.30;99.90;;;;;;4999770;28;25069;-63
2021/07/02 04:29:08;;;;;;;27.05;13.65;;;15.30;99.90;;;;;;5002397;28;25072;-64
2021/07/02 04:31:34;;;;;;;24.67;13.30;;;15.30;99.90;;;;;;5007438;28;25058;-64
2021/07/02 04:34:00;;;;;;;30.90;14.35;;;15.20;99.90;;;;;;5006254;28;25106;-64
2021/07/02 04:36:25;;;;;;;24.95;13.35;;;15.20;99.90;;;;;;5009859;28;25081;-65
2021/07/02 04:38:53;;;;;;;31.58;15.07;;;15.20;99.90;;;;;;5012010;28;25080;-64
2021/07/02 04:41:19;;;;;;;30.15;15.15;;;15.20;99.90;;;;;;5007590;28;25066;-64
2021/07/02 04:43:45;;;;;;;27.20;15.52;;;15.20;99.90;;;;;;5008068;28;25078;-65
2021/07/02 04:46:10;;;;;;;28.52;13.90;;;15.20;99.90;;;;;;5004978;28;25068;-64
2021/07/02 04:48:36;;;;;;;30.65;15.45;;;15.20;99.90;;;;;;4999647;28;25062;-64
2021/07/02 04:51:01;;;;;;;31.30;15.50;;;15.20;99.90;;;;;;5006482;28;25083;-63
2021/07/02 04:53:27;;;;;;;31.38;15.40;;;15.20;99.90;;;;;;5007625;28;25062;-65
2021/07/02 04:55:52;;;;;;;27.38;15.02;;;15.20;99.90;;;;;;5006677;28;25116;-64
2021/07/02 04:58:20;;;;;;;32.30;16.50;;;15.30;99.90;;;;;;5006985;28;25120;-64
2021/07/02 05:00:46;;;;;;;36.58;16.85;;;15.30;99.90;;;;;;4998151;28;25054;-64
2021/07/02 05:03:11;;;;;;;33.95;16.58;;;15.30;99.90;;;;;;5005465;28;25114;-64
2021/07/02 05:05:37;;;;;;;33.90;17.23;;;15.30;99.90;;;;;;5008037;28;25147;-65
2021/07/02 05:08:03;;;;;;;37.13;17.10;;;15.30;99.90;;;;;;5007717;28;25127;-65
2021/07/02 05:10:28;;;;;;;33.83;16.60;;;15.40;99.90;;;;;;4994916;28;25073;-64
2021/07/02 05:12:54;;;;;;;33.97;16.90;;;15.50;99.90;;;;;;5007657;28;25090;-64
2021/07/02 05:15:20;;;;;;;38.42;17.85;;;15.50;99.90;;;;;;5006159;28;25073;-64
2021/07/02 05:17:46;;;;;;;35.95;17.63;;;15.50;99.90;;;;;;5007257;28;25081;-64
2021/07/02 05:20:12;;;;;;;36.42;18.80;;;15.60;99.90;;;;;;5007577;28;25056;-64
2021/07/02 05:22:37;;;;;;;39.72;19.50;;;15.50;99.90;;;;;;5002869;28;25052;-63
2021/07/02 05:25:06;;;;;;;37.63;18.48;;;15.50;99.90;;;;;;4997783;28;25137;-65
2021/07/02 05:27:31;;;;;;;44.42;20.05;;;15.40;99.90;;;;;;5000661;28;25080;-64
2021/07/02 05:29:57;;;;;;;51.92;19.83;;;15.30;99.90;;;;;;4995901;28;25064;-64
2021/07/02 05:32:22;;;;;;;43.03;19.52;;;15.20;99.90;;;;;;4997104;28;25073;-64
2021/07/02 05:34:48;;;;;;;43.88;20.73;;;15.20;99.90;;;;;;4991320;28;25118;-64
2021/07/02 05:37:13;;;;;;;47.97;21.17;;;15.20;99.90;;;;;;5003503;28;25116;-63
2021/07/02 05:39:39;;;;;;;53.17;21.90;;;15.10;99.90;;;;;;5006828;28;25061;-65
2021/07/02 05:42:05;;;;;;;42.42;21.25;;;15.10;99.90;;;;;;5004805;28;25080;-65
2021/07/02 05:44:30;;;;;;;49.15;21.25;;;15.20;99.90;;;;;;4999386;28;25067;-64
2021/07/02 05:46:56;;;;;;;45.05;21.70;;;15.20;99.90;;;;;;5004171;28;25118;-64
2021/07/02 05:49:21;;;;;;;48.95;22.13;;;15.20;99.90;;;;;;4993395;28;25072;-64
2021/07/02 05:51:47;;;;;;;50.10;22.50;;;15.30;99.90;;;;;;5001524;28;25133;-64
2021/07/02 05:54:14;;;;;;;46.90;21.52;;;15.30;99.90;;;;;;5009633;28;25064;-65
2021/07/02 05:56:39;;;;;;;58.63;24.58;;;15.30;99.90;;;;;;5011211;28;25114;-65
2021/07/02 05:59:05;;;;;;;62.10;25.40;;;15.30;99.90;;;;;;5009320;28;25146;-67
2021/07/02 06:01:30;;;;;;;74.78;29.38;;;15.40;99.90;;;;;;5000897;28;25124;-63
2021/07/02 06:03:56;;;;;;;68.68;26.20;;;15.30;99.90;;;;;;5014314;28;25073;-67
2021/07/02 06:06:22;;;;;;;72.38;27.75;;;15.20;99.90;;;;;;5013027;28;25118;-65
2021/07/02 06:08:53;;;;;;;65.53;27.95;;;15.20;99.90;;;;;;5013279;28;25153;-65
2021/07/02 06:11:19;;;;;;;73.40;28.63;;;15.20;99.90;;;;;;5010335;28;25099;-65
2021/07/02 06:13:45;;;;;;;60.65;25.35;;;15.20;99.90;;;;;;5011401;28;25069;-64
2021/07/02 06:16:11;;;;;;;80.50;29.13;;;15.30;99.90;;;;;;5010099;28;25077;-64
2021/07/02 06:18:37;;;;;;;73.25;28.38;;;15.10;99.90;;;;;;5010917;28;25068;-65
2021/07/02 06:21:02;;;;;;;75.15;28.83;;;15.00;99.90;;;;;;5010484;28;25079;-65
2021/07/02 06:23:33;;;;;;;68.07;28.85;;;15.00;99.90;;;;;;5005429;28;25070;-64
2021/07/02 06:25:59;;;;;;;69.40;29.17;;;15.10;99.90;;;;;;5010740;28;25143;-65
2021/07/02 06:28:27;;;;;;;77.47;29.73;;;15.00;99.90;;;;;;5013388;28;25054;-64
2021/07/02 06:30:53;;;;;;;91.07;31.10;;;15.10;99.90;;;;;;5011625;28;25087;-64
2021/07/02 06:33:19;;;;;;;79.82;31.02;;;15.10;99.90;;;;;;5011385;28;25125;-64
2021/07/02 06:35:44;;;;;;;91.60;32.00;;;15.20;99.90;;;;;;5015762;28;24986;-65
2021/07/02 06:38:10;;;;;;;101.70;33.40;;;15.20;99.90;;;;;;5011455;28;25153;-65
2021/07/02 06:40:36;;;;;;;81.20;30.45;;;15.10;99.90;;;;;;5006186;28;25106;-63
2021/07/02 06:43:01;;;;;;;77.38;30.52;;;15.10;99.90;;;;;;5009282;28;25074;-64
2021/07/02 06:45:27;;;;;;;77.63;28.95;;;15.00;99.90;;;;;;5009425;28;25063;-64
2021/07/02 06:48:01;;;;;;;69.60;28.63;;;15.00;99.90;;;;;;5010916;28;25151;-64
2021/07/02 06:50:30;;;;;;;65.70;26.40;;;15.00;99.90;;;;;;5008331;28;25157;-65
2021/07/02 06:52:56;;;;;;;76.68;27.55;;;15.00;99.90;;;;;;5007686;28;25091;-65
2021/07/02 06:55:22;;;;;;;76.15;28.40;;;14.90;99.90;;;;;;5010617;28;25049;-65
2021/07/02 06:57:48;;;;;;;64.90;26.38;;;14.90;99.90;;;;;;5011994;28;25076;-66
2021/07/02 07:00:16;;;;;;;72.50;26.52;;;14.80;99.90;;;;;;5014259;28;25056;-65
2021/07/02 07:02:42;;;;;;;72.55;26.60;;;14.90;99.90;;;;;;5009400;28;25131;-64
2021/07/02 07:05:08;;;;;;;74.55;27.42;;;14.90;99.90;;;;;;5011461;28;25064;-65
2021/07/02 07:07:34;;;;;;;66.30;26.30;;;14.90;99.90;;;;;;5008933;28;25097;-65
2021/07/02 07:09:59;;;;;;;67.57;27.27;;;14.90;99.90;;;;;;5004126;28;25157;-64
2021/07/02 07:12:25;;;;;;;54.55;23.95;;;15.00;99.90;;;;;;5002608;28;25086;-64
2021/07/02 07:14:50;;;;;;;60.92;25.50;;;15.00;99.90;;;;;;5002128;28;25137;-65
2021/07/02 07:17:16;;;;;;;62.70;24.50;;;15.10;99.90;;;;;;4995571;28;25122;-63
2021/07/02 07:19:43;;;;;;;53.28;24.80;;;15.10;99.90;;;;;;5003584;28;25079;-64
2021/07/02 07:22:09;;;;;;;54.05;24.75;;;15.10;99.90;;;;;;4989403;28;25093;-63
2021/07/02 07:24:34;;;;;;;53.63;25.17;;;15.20;99.90;;;;;;5003831;28;25158;-65
2021/07/02 07:27:00;;;;;;;53.75;25.60;;;15.30;99.90;;;;;;4999124;28;25110;-64
2021/07/02 07:29:25;;;;;;;55.75;26.35;;;15.30;99.90;;;;;;4995638;28;25100;-64
2021/07/02 07:31:52;;;;;;;56.15;25.08;;;15.30;99.90;;;;;;5004815;28;25091;-65
2021/07/02 07:36:55;;;;;;;51.40;24.70;;;15.40;99.90;;;;;;5009471;28;25048;-64
2021/07/02 07:39:24;;;;;;;63.67;26.83;;;15.50;99.90;;;;;;5004528;28;25146;-65
2021/07/02 07:41:50;;;;;;;61.38;26.73;;;15.50;99.90;;;;;;5005206;28;25064;-65
2021/07/02 07:44:15;;;;;;;51.08;23.65;;;15.60;99.90;;;;;;5008005;28;25164;-65
2021/07/02 07:46:41;;;;;;;54.95;24.67;;;15.70;99.90;;;;;;5012069;28;25090;-65
2021/07/02 07:49:07;;;;;;;63.33;26.38;;;15.60;99.90;;;;;;5009677;28;25085;-65
2021/07/02 07:51:36;;;;;;;60.13;25.35;;;15.50;99.90;;;;;;5005091;28;25159;-65
2021/07/02 07:54:02;;;;;;;55.70;26.70;;;15.50;99.90;;;;;;5004232;28;25049;-65
2021/07/02 07:56:30;;;;;;;58.90;26.35;;;15.50;99.90;;;;;;5006874;28;25078;-65
2021/07/02 07:58:56;;;;;;;61.97;27.70;;;15.50;99.90;;;;;;5012998;28;25332;-64
2021/07/02 08:01:21;;;;;;;59.90;27.13;;;15.70;99.90;;;;;;5000588;28;25071;-64
2021/07/02 08:03:47;;;;;;;61.05;29.50;;;15.80;99.90;;;;;;5002839;28;25051;-63
2021/07/02 08:06:12;;;;;;;59.50;26.42;;;15.90;99.90;;;;;;5009458;28;25043;-64
2021/07/02 08:08:38;;;;;;;56.60;27.45;;;16.00;99.90;;;;;;5007851;28;25058;-64
2021/07/02 08:11:04;;;;;;;50.88;24.92;;;16.10;99.90;;;;;;5008988;28;25079;-63
2021/07/02 08:13:30;;;;;;;56.65;28.30;;;16.20;99.90;;;;;;5010914;28;25081;-64
2021/07/02 08:15:57;;;;;;;58.22;26.48;;;16.20;99.90;;;;;;5010394;28;25109;-65
2021/07/02 08:18:23;;;;;;;54.97;26.20;;;16.30;99.90;;;;;;5003821;28;25073;-64
2021/07/02 08:20:48;;;;;;;52.17;25.05;;;16.20;99.90;;;;;;5007471;28;25135;-64
2021/07/02 08:23:14;;;;;;;52.75;24.15;;;16.10;99.90;;;;;;5003753;28;25061;-64
2021/07/02 08:25:39;;;;;;;55.75;25.27;;;16.10;99.90;;;;;;5008450;28;25141;-65
2021/07/02 08:30:50;;;;;;;48.70;23.95;;;16.30;99.90;;;;;;5003223;28;25120;-64
2021/07/02 08:33:19;;;;;;;48.50;23.35;;;16.40;99.90;;;;;;4999494;28;25116;-64
2021/07/02 08:35:46;;;;;;;43.53;22.90;;;16.60;99.90;;;;;;5000910;28;25077;-65
2021/07/02 08:38:15;;;;;;;50.15;23.33;;;16.50;99.90;;;;;;4992600;28;25049;-64
2021/07/02 08:40:42;;;;;;;46.70;21.63;;;16.30;99.90;;;;;;4997478;28;25076;-65
2021/07/02 08:43:07;;;;;;;45.75;20.75;;;16.40;99.90;;;;;;5001619;28;25080;-64
2021/07/02 08:45:33;;;;;;;30.58;15.80;;;16.50;99.90;;;;;;5005183;28;25069;-63
2021/07/02 08:48:05;;;;;;;27.67;15.88;;;16.60;99.90;;;;;;5002074;28;25151;-64
2021/07/02 08:50:32;;;;;;;22.13;11.48;;;16.70;99.90;;;;;;5008622;28;25071;-65
2021/07/02 08:52:57;;;;;;;20.73;12.93;;;16.70;99.90;;;;;;4992129;28;25056;-65
2021/07/02 08:55:23;;;;;;;19.10;12.25;;;16.80;99.90;;;;;;4996576;28;25064;-65
2021/07/02 08:57:49;;;;;;;23.17;13.20;;;16.80;99.90;;;;;;4992344;28;25064;-64
2021/07/02 09:00:15;;;;;;;23.63;12.80;;;16.80;99.90;;;;;;4993862;28;25083;-65
2021/07/02 09:02:41;;;;;;;22.67;12.70;;;16.80;99.90;;;;;;4994813;28;25068;-65
2021/07/02 09:05:33;;;;;;;24.85;12.50;;;16.90;99.90;;;;;;4996705;28;25104;-65
2021/07/02 09:08:00;;;;;;;25.43;13.73;;;16.80;99.90;;;;;;4999933;28;25101;-65
2021/07/02 09:10:33;;;;;;;26.13;13.80;;;16.70;99.90;;;;;;5014287;28;25106;-66
2021/07/02 09:12:59;;;;;;;24.00;13.50;;;16.80;99.90;;;;;;4997166;28;25090;-64
2021/07/02 09:15:25;;;;;;;28.40;13.52;;;16.80;99.90;;;;;;4999809;28;25140;-64
2021/07/02 09:17:50;;;;;;;23.23;13.45;;;16.90;99.90;;;;;;5007071;28;25088;-65
2021/07/02 09:20:22;;;;;;;22.83;13.40;;;17.00;99.90;;;;;;5005205;28;25081;-66
2021/07/02 09:23:08;;;;;;;27.20;14.13;;;17.10;99.90;;;;;;4999915;28;25154;-64
2021/07/02 09:25:52;;;;;;;25.80;14.88;;;17.20;99.90;;;;;;5006932;28;25064;-65
2021/07/02 09:28:24;;;;;;;23.60;12.80;;;17.10;99.90;;;;;;5005314;28;25065;-64
2021/07/02 09:30:54;;;;;;;25.80;13.32;;;17.10;99.90;;;;;;5020657;22;25158;-64
2021/07/02 09:33:22;;;;;;;31.50;13.27;;;17.20;99.90;;;;;;4998860;28;25138;-62
2021/07/02 09:35:51;;;;;;;22.52;13.15;;;17.30;99.90;;;;;;5004113;28;25140;-64
2021/07/02 09:38:19;;;;;;;24.83;11.95;;;17.20;99.90;;;;;;5001963;28;25077;-64
2021/07/02 09:40:48;;;;;;;20.67;11.65;;;17.20;99.90;;;;;;5004162;28;25074;-64
2021/07/02 09:43:15;;;;;;;20.67;11.88;;;17.20;99.90;;;;;;4995511;28;25075;-63
2021/07/02 09:45:50;;;;;;;19.98;11.55;;;17.10;99.90;;;;;;5003903;28;25059;-65
2021/07/02 09:48:20;;;;;;;14.52;10.82;;;17.10;99.90;;;;;;4993116;28;25077;-65
2021/07/02 09:50:50;;;;;;;16.52;10.05;;;17.20;99.90;;;;;;5006314;28;25127;-64
2021/07/02 09:53:28;;;;;;;18.45;11.25;;;17.20;99.90;;;;;;4992026;28;25150;-64
2021/07/02 09:55:57;;;;;;;19.17;11.15;;;17.20;99.90;;;;;;5005979;28;25078;-64
2021/07/02 09:58:27;;;;;;;23.55;11.25;;;17.10;99.90;;;;;;5022548;28;25062;-64
2021/07/02 10:00:57;;;;;;;19.70;11.73;;;17.10;99.90;;;;;;5006629;28;25067;-65
2021/07/02 10:03:25;;;;;;;21.40;11.68;;;17.20;99.90;;;;;;4987950;28;25087;-65
2021/07/02 10:05:55;;;;;;;16.77;10.93;;;17.10;99.90;;;;;;4998905;28;25074;-63
2021/07/02 10:08:26;;;;;;;20.33;10.20;;;17.20;99.90;;;;;;4993644;28;25077;-65
2021/07/02 10:10:54;;;;;;;19.77;11.77;;;17.20;99.90;;;;;;5007780;28;25060;-64
2021/07/02 10:13:21;;;;;;;17.58;11.13;;;17.20;99.90;;;;;;5005698;28;25115;-65
2021/07/02 10:15:47;;;;;;;20.38;10.77;;;17.10;99.90;;;;;;5007647;28;25120;-65
2021/07/02 10:18:17;;;;;;;20.05;12.13;;;17.10;99.90;;;;;;4992830;28;25156;-66
2021/07/02 10:20:44;;;;;;;21.60;11.02;;;17.10;99.90;;;;;;5000886;28;25109;-64
2021/07/02 10:23:14;;;;;;;18.33;10.80;;;17.20;99.90;;;;;;4988042;28;25143;-62
2021/07/02 10:25:42;;;;;;;18.05;10.40;;;17.20;99.90;;;;;;4986873;28;25121;-66
2021/07/02 10:28:11;;;;;;;22.10;12.88;;;17.20;99.90;;;;;;4988816;28;25072;-64
2021/07/02 10:30:41;;;;;;;22.77;10.98;;;17.30;99.90;;;;;;4994391;28;25056;-64
2021/07/02 10:33:08;;;;;;;20.38;12.50;;;17.30;99.90;;;;;;5000441;28;25076;-66
2021/07/02 10:35:35;;;;;;;18.35;11.00;;;17.30;99.90;;;;;;5009549;28;25136;-65
2021/07/02 10:38:03;;;;;;;19.60;11.32;;;17.50;99.90;;;;;;5014804;28;25136;-65
2021/07/02 10:40:38;;;;;;;20.60;11.98;;;17.70;99.90;;;;;;5009960;28;25065;-65
2021/07/02 10:43:18;;;;;;;18.90;11.43;;;17.70;99.90;;;;;;5011526;28;25128;-64
2021/07/02 10:46:15;;;;;;;20.63;11.85;;;17.70;99.90;;;;;;5008872;28;25091;-64
2021/07/02 10:48:59;;;;;;;21.63;12.35;;;17.90;99.90;;;;;;5005847;28;25050;-66
2021/07/02 10:51:49;;;;;;;20.45;11.25;;;18.10;99.90;;;;;;5011115;28;25112;-66
2021/07/02 10:54:19;;;;;;;19.55;12.20;;;17.80;99.90;;;;;;5000286;28;25077;-68
2021/07/02 10:57:06;;;;;;;23.23;11.35;;;17.90;99.90;;;;;;5009951;28;25163;-66
2021/07/02 10:59:52;;;;;;;24.60;12.45;;;17.70;99.90;;;;;;5001207;28;25136;-64
2021/07/02 11:02:25;;;;;;;21.58;11.70;;;17.80;99.90;;;;;;5002185;28;25061;-64
2021/07/02 11:04:53;;;;;;;20.83;12.82;;;17.90;99.90;;;;;;5007936;28;25080;-67
2021/07/02 11:07:19;;;;;;;27.33;14.15;;;18.00;99.90;;;;;;5003761;28;25156;-64
2021/07/02 11:10:05;;;;;;;22.05;13.60;;;17.70;99.90;;;;;;5010065;28;25065;-66
2021/07/02 11:12:44;;;;;;;21.27;13.38;;;17.70;99.90;;;;;;5009765;28;25158;-65
2021/07/02 11:15:13;;;;;;;25.63;13.65;;;17.70;99.90;;;;;;5010230;28;25113;-65
2021/07/02 11:17:46;;;;;;;21.92;14.13;;;17.60;99.90;;;;;;5009352;28;25084;-66
2021/07/02 11:20:18;;;;;;;30.83;14.70;;;17.60;99.90;;;;;;5014394;28;25075;-65
2021/07/02 11:22:48;;;;;;;24.17;14.55;;;17.60;99.90;;;;;;5023496;28;25057;-64
2021/07/02 11:25:17;;;;;;;27.08;14.77;;;17.70;99.90;;;;;;5020569;28;25061;-64
2021/07/02 11:27:47;;;;;;;28.90;16.70;;;17.70;99.90;;;;;;5005281;28;25113;-66
2021/07/02 11:33:04;;;;;;;26.75;16.75;;;17.80;99.90;;;;;;5012015;28;25055;-66
2021/07/02 11:35:37;;;;;;;25.73;14.82;;;17.70;99.90;;;;;;5009703;28;25090;-64
2021/07/02 11:38:08;;;;;;;31.23;15.50;;;17.70;99.90;;;;;;5009679;28;25059;-65
2021/07/02 11:40:48;;;;;;;30.52;16.33;;;17.60;99.90;;;;;;5007083;28;25072;-65
2021/07/02 11:43:16;;;;;;;28.60;16.23;;;17.70;99.90;;;;;;5008886;28;25148;-65
2021/07/02 11:45:46;;;;;;;24.10;13.75;;;17.80;99.90;;;;;;5008590;28;25103;-65
2021/07/02 11:48:23;;;;;;;20.48;13.38;;;17.90;99.90;;;;;;4995521;28;25153;-64
2021/07/02 11:51:17;;;;;;;19.73;12.43;;;18.10;99.90;;;;;;5008414;28;25127;-64
2021/07/02 11:53:46;;;;;;;21.35;14.10;;;18.20;99.90;;;;;;4989186;28;25105;-63
2021/07/02 11:56:20;;;;;;;19.63;12.75;;;18.20;99.90;;;;;;5004157;28;25134;-64
2021/07/02 11:58:49;;;;;;;21.35;11.93;;;18.20;99.90;;;;;;4988081;28;25057;-64
2021/07/02 12:01:17;;;;;;;25.15;14.15;;;18.20;99.90;;;;;;5003709;28;25141;-64
2021/07/02 12:04:00;;;;;;;21.20;12.70;;;18.60;99.90;;;;;;5001215;28;25131;-63
2021/07/02 12:06:28;;;;;;;19.90;11.80;;;18.80;99.90;;;;;;4990360;28;25067;-64
2021/07/02 12:08:59;;;;;;;23.42;11.98;;;18.60;99.90;;;;;;5009438;28;25139;-66
2021/07/02 12:11:37;;;;;;;16.98;10.63;;;18.70;99.90;;;;;;5007679;28;25061;-65
2021/07/02 12:14:05;;;;;;;17.88;10.77;;;18.90;99.90;;;;;;5008408;28;25042;-63
2021/07/02 12:16:39;;;;;;;20.17;11.18;;;19.00;99.90;;;;;;5008126;28;25068;-64
2021/07/02 12:19:07;;;;;;;20.55;11.30;;;19.30;99.90;;;;;;5006165;28;25066;-65
2021/07/02 12:21:33;;;;;;;21.83;11.18;;;19.30;99.90;;;;;;5010270;28;25174;-64
2021/07/02 12:24:07;;;;;;;20.13;11.63;;;19.10;99.90;;;;;;5003896;28;25092;-64
2021/07/02 12:26:35;;;;;;;20.02;11.98;;;19.00;99.90;;;;;;4989110;28;25149;-64
2021/07/02 12:29:00;;;;;;;16.30;10.85;;;19.20;99.90;;;;;;4994700;28;25064;-64
2021/07/02 12:31:31;;;;;;;23.80;11.00;;;19.30;99.90;;;;;;5008602;28;25083;-64
2021/07/02 12:33:57;;;;;;;18.20;10.48;;;19.40;99.90;;;;;;5010850;28;25069;-65
2021/07/02 12:36:23;;;;;;;17.02;10.77;;;19.50;99.90;;;;;;5011171;28;25065;-64
2021/07/02 12:39:08;;;;;;;20.08;9.73;;;19.50;99.90;;;;;;5008560;28;25070;-63